Terminal Aerodrome Forecast
Issued by NWS Jacksonville, FL

Home | Current Version | Previous Version | Text Only | Print | Product List | Glossary On
Versions: 1 2 3 4 5 6 7 8 9 10 11 12 13 14 15 16 17 18 19
000
FTUS42 KJAX 231720
TAFSSI
TAF
KSSI 231720Z 2318/2418 12008KT P6SM SCT035
     FM240700 VRB03KT 4SM BR SCT005
     FM240900 VRB02KT 1SM BR BKN003
     FM241430 16006KT P6SM SCT007 SCT250=

USA.gov is the U.S. government's official web portal to all federal, state and local government web resources and services.